createdAt,value
2022-11-04T00:00:10.820Z,17.98
2022-11-04T00:02:37.369Z,16.45
2022-11-04T00:05:04.087Z,14.98
2022-11-04T00:07:49.105Z,13.18
2022-11-04T00:10:15.503Z,14.90
2022-11-04T00:12:41.916Z,16.35
2022-11-04T00:15:26.892Z,14.35
2022-11-04T00:17:53.333Z,17.63
2022-11-04T00:20:38.201Z,15.93
2022-11-04T00:23:23.085Z,14.13
2022-11-04T00:26:07.959Z,16.25
2022-11-04T00:28:43.070Z,18.45
2022-11-04T00:31:28.643Z,15.02
2022-11-04T00:33:58.198Z,15.52
2022-11-04T00:36:26.081Z,20.65
2022-11-04T00:38:52.642Z,12.52
2022-11-04T00:41:28.807Z,15.80
2022-11-04T00:44:01.179Z,14.07
2022-11-04T00:46:29.250Z,16.13
2022-11-04T00:48:56.073Z,14.82
2022-11-04T00:51:22.716Z,13.82
2022-11-04T00:53:49.899Z,16.85
2022-11-04T00:56:16.855Z,17.52
2022-11-04T00:58:43.581Z,16.30
2022-11-04T01:01:18.148Z,14.70
2022-11-04T01:03:50.216Z,16.88
2022-11-04T01:06:17.720Z,14.02
2022-11-04T01:08:44.321Z,12.82
2022-11-04T01:11:12.605Z,18.20
2022-11-04T01:13:39.893Z,13.30
2022-11-04T01:16:08.758Z,12.65
2022-11-04T01:18:35.947Z,15.00
2022-11-04T01:21:05.136Z,16.20
2022-11-04T01:23:31.701Z,15.38
2022-11-04T01:25:58.131Z,20.10
2022-11-04T01:28:24.523Z,13.55
2022-11-04T01:30:50.984Z,19.52
2022-11-04T01:33:17.605Z,12.82
2022-11-04T01:35:44.086Z,15.88
2022-11-04T01:38:11.255Z,11.88
2022-11-04T01:40:39.988Z,10.43
2022-11-04T01:45:39.745Z,13.07
2022-11-04T01:48:17.460Z,10.93
2022-11-04T01:50:44.031Z,10.75
2022-11-04T01:53:15.951Z,10.95
2022-11-04T01:55:52.708Z,11.82
2022-11-04T01:58:23.189Z,8.27
2022-11-04T02:00:50.014Z,7.50
2022-11-04T02:03:34.279Z,6.32
2022-11-04T02:06:02.446Z,6.72
2022-11-04T02:08:29.880Z,6.72
2022-11-04T02:11:02.182Z,7.38
2022-11-04T02:13:31.776Z,6.70
2022-11-04T02:16:16.380Z,6.68
2022-11-04T02:19:18.206Z,4.50
2022-11-04T02:22:14.009Z,4.85
2022-11-04T02:25:01.649Z,4.47
2022-11-04T02:27:37.800Z,6.70
2022-11-04T02:30:16.731Z,4.80
2022-11-04T02:33:10.915Z,5.45
2022-11-04T02:35:49.526Z,5.03
2022-11-04T02:38:26.971Z,6.35
2022-11-04T02:41:25.365Z,5.03
2022-11-04T02:44:19.281Z,3.42
2022-11-04T02:46:57.360Z,3.75
2022-11-04T02:49:32.698Z,4.28
2022-11-04T02:52:06.002Z,4.70
2022-11-04T02:54:55.499Z,5.22
2022-11-04T02:57:28.929Z,4.68
2022-11-04T03:00:01.448Z,3.53
2022-11-04T03:02:38.000Z,5.07
2022-11-04T03:05:08.348Z,5.03
2022-11-04T03:07:37.943Z,3.55
2022-11-04T03:10:18.978Z,4.13
2022-11-04T03:12:58.384Z,4.00
2022-11-04T03:15:28.890Z,4.43
2022-11-04T03:18:16.412Z,5.25
2022-11-04T03:20:46.283Z,2.08
2022-11-04T03:23:13.570Z,2.88
2022-11-04T03:25:44.747Z,2.67
2022-11-04T03:28:25.405Z,2.67
2022-11-04T03:30:55.739Z,3.35
2022-11-04T03:33:25.241Z,2.78
2022-11-04T03:35:52.623Z,2.85
2022-11-04T03:38:21.313Z,2.53
2022-11-04T03:40:47.805Z,3.28
2022-11-04T03:43:20.097Z,2.03
2022-11-04T03:48:23.881Z,3.58
2022-11-04T03:50:51.197Z,3.28
2022-11-04T03:53:22.524Z,3.38
2022-11-04T03:56:14.513Z,2.05
2022-11-04T03:59:10.586Z,2.10
2022-11-04T04:01:46.065Z,2.67
2022-11-04T04:04:19.628Z,2.63
2022-11-04T04:06:46.718Z,2.97
2022-11-04T04:09:39.478Z,4.30
2022-11-04T04:12:26.203Z,2.30
2022-11-04T04:14:56.378Z,2.20
2022-11-04T04:17:45.299Z,3.05
2022-11-04T04:20:33.930Z,5.13
2022-11-04T04:23:24.715Z,5.15
2022-11-04T04:26:12.389Z,4.05
2022-11-04T04:28:40.226Z,3.92
2022-11-04T04:31:09.733Z,2.67
2022-11-04T04:33:36.198Z,5.07
2022-11-04T04:36:02.920Z,4.82
2022-11-04T04:38:51.175Z,4.03
2022-11-04T04:41:40.065Z,3.25
2022-11-04T04:44:36.976Z,2.80
2022-11-04T04:47:04.605Z,2.95
2022-11-04T04:49:35.148Z,3.10
2022-11-04T04:52:08.031Z,3.17
2022-11-04T04:54:34.414Z,4.60
2022-11-04T04:57:00.802Z,4.18
2022-11-04T04:59:27.301Z,3.33
2022-11-04T05:01:53.780Z,3.92
2022-11-04T05:04:20.327Z,3.10
2022-11-04T05:06:46.711Z,2.92
2022-11-04T05:09:13.111Z,3.75
2022-11-04T05:11:39.549Z,3.08
2022-11-04T05:14:05.974Z,2.42
2022-11-04T05:16:35.465Z,4.03
2022-11-04T05:19:05.962Z,3.70
2022-11-04T05:21:32.523Z,3.90
2022-11-04T05:23:58.914Z,3.33
2022-11-04T05:26:25.378Z,5.82
2022-11-04T05:28:51.790Z,4.78
2022-11-04T05:31:18.470Z,2.95
2022-11-04T05:33:44.876Z,3.70
2022-11-04T05:36:13.611Z,5.80
2022-11-04T05:38:40.538Z,3.60
2022-11-04T05:41:09.052Z,4.07
2022-11-04T05:46:01.938Z,5.30
2022-11-04T05:48:28.601Z,4.95
2022-11-04T05:50:55.567Z,6.32
2022-11-04T05:53:22.136Z,4.35
2022-11-04T05:55:48.611Z,4.32
2022-11-04T05:58:15.094Z,4.68
2022-11-04T06:00:41.518Z,3.75
2022-11-04T06:03:10.729Z,3.92
2022-11-04T06:05:40.066Z,5.18
2022-11-04T06:08:06.776Z,5.55
2022-11-04T06:10:33.401Z,3.92
2022-11-04T06:12:59.846Z,2.67
2022-11-04T06:15:26.334Z,4.35
2022-11-04T06:17:52.795Z,4.38
2022-11-04T06:20:19.206Z,5.22
2022-11-04T06:22:45.621Z,3.50
2022-11-04T06:25:12.126Z,4.10
2022-11-04T06:27:38.498Z,2.20
2022-11-04T06:30:05.482Z,4.15
2022-11-04T06:32:31.913Z,3.15
2022-11-04T06:34:58.338Z,3.65
2022-11-04T06:37:24.744Z,4.03
2022-11-04T06:39:51.114Z,4.05
2022-11-04T06:42:17.575Z,4.03
2022-11-04T06:44:43.977Z,1.75
2022-11-04T06:47:10.546Z,2.72
2022-11-04T06:49:36.927Z,4.28
2022-11-04T06:52:03.493Z,3.28
2022-11-04T06:54:30.051Z,3.20
2022-11-04T06:56:56.467Z,2.17
2022-11-04T06:59:24.002Z,3.10
2022-11-04T07:01:51.914Z,4.07
2022-11-04T07:04:19.418Z,2.55
2022-11-04T07:06:46.152Z,1.95
2022-11-04T07:09:14.388Z,3.90
2022-11-04T07:11:42.507Z,3.25
2022-11-04T07:14:09.902Z,6.63
2022-11-04T07:16:36.878Z,3.92
2022-11-04T07:19:03.712Z,3.67
2022-11-04T07:21:30.283Z,6.03
2022-11-04T07:23:56.730Z,3.67
2022-11-04T07:26:23.135Z,3.78
2022-11-04T07:28:49.774Z,3.65
2022-11-04T07:31:18.000Z,4.85
2022-11-04T07:33:49.696Z,3.88
2022-11-04T07:36:17.153Z,4.30
2022-11-04T07:38:43.742Z,2.75
2022-11-04T07:41:10.182Z,3.15
2022-11-04T07:43:36.566Z,5.95
2022-11-04T07:46:05.969Z,6.65
2022-11-04T07:48:32.802Z,4.43
2022-11-04T07:51:00.381Z,4.45
2022-11-04T07:53:27.957Z,7.05
2022-11-04T07:55:54.404Z,6.45
2022-11-04T07:58:21.353Z,7.53
2022-11-04T08:00:48.000Z,4.18
2022-11-04T08:03:14.506Z,6.90
2022-11-04T08:05:41.002Z,6.68
2022-11-04T08:08:07.738Z,5.70
2022-11-04T08:10:34.442Z,6.30
2022-11-04T08:13:00.845Z,5.95
2022-11-04T08:15:29.127Z,6.47
2022-11-04T08:17:55.578Z,9.40
2022-11-04T08:20:22.004Z,6.47
2022-11-04T08:22:48.431Z,5.40
2022-11-04T08:25:14.935Z,6.45
2022-11-04T08:27:41.346Z,5.68
2022-11-04T08:30:08.831Z,5.97
2022-11-04T08:32:35.423Z,6.80
2022-11-04T08:35:01.853Z,3.35
2022-11-04T08:37:28.271Z,5.18
2022-11-04T08:39:54.664Z,9.05
2022-11-04T08:42:21.071Z,6.75
2022-11-04T08:44:51.561Z,4.18
2022-11-04T08:47:18.448Z,9.38
2022-11-04T08:49:44.846Z,6.30
2022-11-04T08:52:11.352Z,5.93
2022-11-04T08:54:37.758Z,5.63
2022-11-04T08:57:04.387Z,7.70
2022-11-04T08:59:30.799Z,9.25
2022-11-04T09:01:57.400Z,10.38
2022-11-04T09:04:24.014Z,9.57
2022-11-04T09:06:52.113Z,10.85
2022-11-04T09:09:19.013Z,8.20
2022-11-04T09:11:46.464Z,12.45
2022-11-04T09:14:13.709Z,4.45
2022-11-04T09:16:41.754Z,5.03
2022-11-04T09:19:08.559Z,5.22
2022-11-04T09:21:35.111Z,9.98
2022-11-04T09:24:01.632Z,8.43
2022-11-04T09:26:28.553Z,10.23
2022-11-04T09:28:56.113Z,6.88
2022-11-04T09:31:23.809Z,5.60
2022-11-04T09:33:50.911Z,6.50
2022-11-04T09:36:17.589Z,5.82
2022-11-04T09:38:45.233Z,5.93
2022-11-04T09:41:42.279Z,7.47
2022-11-04T09:44:14.836Z,6.68
2022-11-04T09:46:42.281Z,7.65
2022-11-04T09:49:12.729Z,5.00
2022-11-04T09:51:56.954Z,8.30
2022-11-04T09:54:27.138Z,5.95
2022-11-04T09:56:57.798Z,7.03
2022-11-04T09:59:28.668Z,8.55
2022-11-04T10:02:02.372Z,7.82
2022-11-04T10:04:44.056Z,9.80
2022-11-04T10:07:17.346Z,5.78
2022-11-04T10:10:08.274Z,8.70
2022-11-04T10:13:13.394Z,12.40
2022-11-04T10:16:18.420Z,8.40
2022-11-04T10:18:50.212Z,6.93
2022-11-04T10:21:35.980Z,7.95
2022-11-04T10:24:18.294Z,4.30
2022-11-04T10:27:00.670Z,5.75
2022-11-04T10:29:34.174Z,8.10
2022-11-04T10:32:03.783Z,7.68
2022-11-04T10:34:56.344Z,11.43
2022-11-04T10:37:26.637Z,3.55
2022-11-04T10:40:01.181Z,5.72
2022-11-04T10:42:27.622Z,6.60
2022-11-04T10:44:56.465Z,6.68
2022-11-04T10:47:42.516Z,16.33
2022-11-04T10:50:37.898Z,6.97
2022-11-04T10:53:23.109Z,5.18
2022-11-04T10:56:04.782Z,8.93
2022-11-04T10:58:37.417Z,7.18
2022-11-04T11:01:26.081Z,10.23
2022-11-04T11:03:52.922Z,7.82
2022-11-04T11:06:29.823Z,8.90
2022-11-04T11:09:12.987Z,6.07
2022-11-04T11:11:47.498Z,5.93
2022-11-04T11:14:30.515Z,12.30
2022-11-04T11:17:17.261Z,7.68
2022-11-04T11:20:05.855Z,7.65
2022-11-04T11:22:38.267Z,8.32
2022-11-04T11:25:42.432Z,6.82
2022-11-04T11:28:21.370Z,6.85
2022-11-04T11:30:47.714Z,8.05
2022-11-04T11:33:18.609Z,6.70
2022-11-04T11:35:56.363Z,6.13
2022-11-04T11:38:30.808Z,6.47
2022-11-04T11:41:24.256Z,7.50
2022-11-04T11:43:53.877Z,5.95
2022-11-04T11:46:26.104Z,6.30
2022-11-04T11:48:57.674Z,6.25
2022-11-04T11:51:31.692Z,8.98
2022-11-04T11:54:15.378Z,4.88
2022-11-04T11:57:12.109Z,4.10
2022-11-04T12:02:53.969Z,8.10
2022-11-04T12:11:32.781Z,5.95
2022-11-04T12:14:13.779Z,7.93
2022-11-04T12:16:58.904Z,5.97
2022-11-04T12:19:45.140Z,6.00
2022-11-04T12:22:27.011Z,10.85
2022-11-04T12:25:05.473Z,5.10
2022-11-04T12:27:43.663Z,7.00
2022-11-04T12:30:22.315Z,5.53
2022-11-04T12:33:21.135Z,4.93
2022-11-04T12:35:53.547Z,5.30
2022-11-04T12:38:56.846Z,7.25
2022-11-04T12:42:06.458Z,6.35
2022-11-04T12:44:34.485Z,5.18
2022-11-04T12:47:13.889Z,9.38
2022-11-04T12:50:18.908Z,6.93
2022-11-04T12:53:10.774Z,7.22
2022-11-04T12:56:04.948Z,6.15
2022-11-04T12:58:31.388Z,7.07
2022-11-04T13:01:03.462Z,10.07
2022-11-04T13:03:41.396Z,8.40
2022-11-04T13:06:18.179Z,5.35
2022-11-04T13:08:52.705Z,7.75
2022-11-04T13:11:24.912Z,6.78
2022-11-04T13:14:21.215Z,7.57
2022-11-04T13:16:51.727Z,7.15
2022-11-04T13:19:31.530Z,8.45
2022-11-04T13:22:02.761Z,10.30
2022-11-04T13:24:32.978Z,4.43
2022-11-04T13:27:03.164Z,6.32
2022-11-04T13:29:34.412Z,8.82
2022-11-04T13:32:21.036Z,5.38
2022-11-04T13:34:57.344Z,8.52
2022-11-04T13:37:33.825Z,7.45
2022-11-04T13:40:10.494Z,7.82
2022-11-04T13:43:37.502Z,19.33
2022-11-04T13:46:16.516Z,21.73
2022-11-04T13:49:12.167Z,29.45
2022-11-04T13:51:38.570Z,30.98
2022-11-04T13:54:06.556Z,31.58
2022-11-04T13:56:41.017Z,14.63
2022-11-04T13:59:34.252Z,16.15
2022-11-04T14:02:37.808Z,18.83
2022-11-04T14:05:34.520Z,24.90
2022-11-04T14:08:01.061Z,12.30
2022-11-04T14:10:49.619Z,20.65
2022-11-04T14:13:31.575Z,33.88
2022-11-04T14:16:17.646Z,25.55
2022-11-04T14:18:46.878Z,11.85
2022-11-04T14:21:15.882Z,21.02
2022-11-04T14:23:46.040Z,12.57
2022-11-04T14:26:18.432Z,15.55
2022-11-04T14:28:47.970Z,16.42
2022-11-04T14:31:33.831Z,14.82
2022-11-04T14:34:01.227Z,33.55
2022-11-04T14:36:35.331Z,20.33
2022-11-04T14:39:12.715Z,19.00
2022-11-04T14:41:57.501Z,22.02
2022-11-04T14:44:31.796Z,16.35
2022-11-04T14:47:25.614Z,15.57
2022-11-04T14:49:58.136Z,15.00
2022-11-04T14:52:40.616Z,10.95
2022-11-04T14:55:29.674Z,9.45
2022-11-04T14:58:00.652Z,118.75
2022-11-04T15:00:34.234Z,64.07
2022-11-04T15:03:03.981Z,10.18
2022-11-04T15:05:33.353Z,8.88
2022-11-04T15:07:59.852Z,14.50
2022-11-04T15:10:28.224Z,13.75
2022-11-04T15:13:01.067Z,13.00
2022-11-04T15:15:44.411Z,15.80
2022-11-04T15:18:28.122Z,10.77
2022-11-04T15:21:03.105Z,13.48
2022-11-04T15:24:04.812Z,14.88
2022-11-04T15:42:51.087Z,11.68
2022-11-04T15:45:26.502Z,37.15
2022-11-04T15:48:26.783Z,14.02
2022-11-04T15:51:03.100Z,11.13
2022-11-04T15:53:29.584Z,22.98
2022-11-04T15:55:56.225Z,7.65
2022-11-04T15:58:22.749Z,11.43
2022-11-04T16:00:54.687Z,14.38
2022-11-04T16:03:24.132Z,14.10
2022-11-04T16:06:05.278Z,13.68
2022-11-04T16:08:32.419Z,26.23
2022-11-04T16:11:18.753Z,37.97
2022-11-04T16:13:46.325Z,22.08
2022-11-04T16:16:27.045Z,19.85
2022-11-04T16:19:00.241Z,19.77
2022-11-04T16:21:32.113Z,14.40
2022-11-04T16:24:20.555Z,16.27
2022-11-04T16:26:48.119Z,10.07
2022-11-04T16:29:25.607Z,8.93
2022-11-04T16:32:26.745Z,11.13
2022-11-04T16:34:57.233Z,8.95
2022-11-04T16:37:25.616Z,10.50
2022-11-04T16:39:52.157Z,20.50
2022-11-04T16:42:18.898Z,12.68
2022-11-04T16:44:48.183Z,15.65
2022-11-04T16:47:14.585Z,10.95
2022-11-04T16:49:41.196Z,11.02
2022-11-04T16:52:15.203Z,13.95
2022-11-04T16:54:41.648Z,21.13
2022-11-04T16:57:11.817Z,26.75
2022-11-04T16:59:38.281Z,16.40
2022-11-04T17:02:25.420Z,18.38
2022-11-04T17:04:52.052Z,13.35
2022-11-04T17:07:30.386Z,14.32
2022-11-04T17:10:20.915Z,16.77
2022-11-04T17:12:47.854Z,14.20
2022-11-04T17:15:15.700Z,14.40
2022-11-04T17:17:42.891Z,18.00
2022-11-04T17:20:13.924Z,18.60
2022-11-04T17:22:43.673Z,14.00
2022-11-04T17:25:22.410Z,21.88
2022-11-04T17:27:49.239Z,22.80
2022-11-04T17:30:18.755Z,16.05
2022-11-04T17:32:46.745Z,12.27
2022-11-04T17:35:14.404Z,18.60
2022-11-04T17:37:41.032Z,15.43
2022-11-04T17:40:09.196Z,18.75
2022-11-04T17:42:54.354Z,21.25
2022-11-04T17:45:20.753Z,17.08
2022-11-04T17:47:47.199Z,22.65
2022-11-04T17:50:13.852Z,20.17
2022-11-04T17:52:42.153Z,20.50
2022-11-04T17:55:15.464Z,18.75
2022-11-04T17:57:43.257Z,17.55
2022-11-04T18:00:10.535Z,13.82
2022-11-04T18:02:38.692Z,16.30
2022-11-04T18:05:05.591Z,19.20
2022-11-04T18:07:31.981Z,19.63
2022-11-04T18:09:58.402Z,20.60
2022-11-04T18:12:37.411Z,19.45
2022-11-04T18:15:17.247Z,14.57
2022-11-04T18:17:46.187Z,13.52
2022-11-04T18:20:15.390Z,16.65
2022-11-04T18:22:43.033Z,10.77
2022-11-04T18:25:10.287Z,11.43
2022-11-04T18:27:36.887Z,21.17
2022-11-04T18:30:03.620Z,30.05
2022-11-04T18:32:29.995Z,18.38
2022-11-04T18:34:56.407Z,29.30
2022-11-04T18:37:23.853Z,36.20
2022-11-04T18:39:50.247Z,23.10
2022-11-04T18:42:16.690Z,16.13
2022-11-04T18:44:43.145Z,13.35
2022-11-04T18:47:10.745Z,18.73
2022-11-04T18:49:37.163Z,17.63
2022-11-04T18:52:03.721Z,16.75
2022-11-04T18:54:30.318Z,8.93
2022-11-04T18:56:56.741Z,11.25
2022-11-04T18:59:23.135Z,9.60
2022-11-04T19:01:51.621Z,10.52
2022-11-04T19:06:45.374Z,15.60
2022-11-04T19:09:45.650Z,18.52
2022-11-04T19:12:21.878Z,13.35
2022-11-04T19:14:48.276Z,11.68
2022-11-04T19:17:14.948Z,11.02
2022-11-04T19:19:42.819Z,14.40
2022-11-04T19:22:10.113Z,9.98
2022-11-04T19:24:36.770Z,11.00
2022-11-04T19:27:03.368Z,13.40
2022-11-04T19:29:30.070Z,12.02
2022-11-04T19:31:56.591Z,15.27
2022-11-04T19:34:23.038Z,17.23
2022-11-04T19:36:49.417Z,23.27
2022-11-04T19:39:15.846Z,18.60
2022-11-04T19:42:00.983Z,16.00
2022-11-04T19:44:27.454Z,17.20
2022-11-04T19:46:53.998Z,16.55
2022-11-04T19:49:20.654Z,15.68
2022-11-04T19:51:47.321Z,20.75
2022-11-04T19:54:13.739Z,22.95
2022-11-04T19:56:40.273Z,16.05
2022-11-04T19:59:09.065Z,14.70
2022-11-04T20:01:38.444Z,14.52
2022-11-04T20:04:05.187Z,18.55
2022-11-04T20:06:33.056Z,17.42
2022-11-04T20:09:04.200Z,16.60
2022-11-04T20:11:31.467Z,12.55
2022-11-04T20:13:59.284Z,16.30
2022-11-04T20:16:32.303Z,12.15
2022-11-04T20:19:01.316Z,14.88
2022-11-04T20:21:34.617Z,14.10
2022-11-04T20:24:07.179Z,10.93
2022-11-04T20:26:35.926Z,25.77
2022-11-04T20:29:03.864Z,20.98
2022-11-04T20:31:33.191Z,15.63
2022-11-04T20:34:04.666Z,19.08
2022-11-04T20:36:32.100Z,17.65
2022-11-04T20:39:00.211Z,14.52
2022-11-04T20:41:30.302Z,19.00
2022-11-04T20:43:56.902Z,13.40
2022-11-04T20:46:25.951Z,20.98
2022-11-04T20:48:52.824Z,17.00
2022-11-04T20:51:24.595Z,9.82
2022-11-04T20:53:56.026Z,9.18
2022-11-04T20:56:26.113Z,12.13
2022-11-04T20:58:58.985Z,10.57
2022-11-04T21:01:30.269Z,11.68
2022-11-04T21:04:01.073Z,11.55
2022-11-04T21:06:28.195Z,18.00
2022-11-04T21:08:54.789Z,12.60
2022-11-04T21:11:21.354Z,10.98
2022-11-04T21:13:47.863Z,11.15
2022-11-04T21:16:15.122Z,14.32
2022-11-04T21:18:41.502Z,16.75
2022-11-04T21:21:09.237Z,14.90
2022-11-04T21:23:35.731Z,11.90
2022-11-04T21:26:08.213Z,11.85
2022-11-04T21:28:34.660Z,9.48
2022-11-04T21:31:09.868Z,9.13
2022-11-04T21:33:39.500Z,12.88
2022-11-04T21:36:08.430Z,10.93
2022-11-04T21:38:35.206Z,9.38
2022-11-04T21:41:10.785Z,8.63
2022-11-04T21:43:37.212Z,11.10
2022-11-04T21:46:08.674Z,8.60
2022-11-04T21:48:36.554Z,11.10
2022-11-04T21:51:07.977Z,11.32
2022-11-04T21:53:34.539Z,8.38
2022-11-04T21:56:05.773Z,13.27
2022-11-04T21:58:32.820Z,11.60
2022-11-04T22:00:59.314Z,21.65
2022-11-04T22:03:28.357Z,17.65
2022-11-04T22:06:04.228Z,14.40
2022-11-04T22:08:31.637Z,12.02
2022-11-04T22:11:11.178Z,15.57
2022-11-04T22:13:37.652Z,14.60
2022-11-04T22:16:15.875Z,10.90
2022-11-04T22:18:42.792Z,8.68
2022-11-04T22:21:13.200Z,10.95
2022-11-04T22:23:40.290Z,7.70
2022-11-04T22:26:10.248Z,12.05
2022-11-04T22:28:36.729Z,10.35
2022-11-04T22:31:08.993Z,10.35
2022-11-04T22:33:36.172Z,12.05
2022-11-04T22:36:02.708Z,11.25
2022-11-04T22:38:30.638Z,12.65
2022-11-04T22:40:58.155Z,8.15
2022-11-04T22:43:25.759Z,9.60
2022-11-04T22:45:54.155Z,10.88
2022-11-04T22:48:21.078Z,11.93
2022-11-04T22:50:54.941Z,10.77
2022-11-04T22:53:21.507Z,8.70
2022-11-04T22:55:47.921Z,12.13
2022-11-04T22:58:14.329Z,13.40
2022-11-04T23:00:40.828Z,14.23
2022-11-04T23:03:07.443Z,13.57
2022-11-04T23:05:34.287Z,13.07
2022-11-04T23:08:01.083Z,13.48
2022-11-04T23:10:47.119Z,12.52
2022-11-04T23:13:32.944Z,16.30
2022-11-04T23:16:18.383Z,12.50
2022-11-04T23:18:47.705Z,12.35
2022-11-04T23:21:35.348Z,13.75
2022-11-04T23:24:20.723Z,13.23
2022-11-04T23:26:47.699Z,11.10
2022-11-04T23:29:34.358Z,12.85
2022-11-04T23:32:00.826Z,10.18
2022-11-04T23:34:46.515Z,9.73
2022-11-04T23:37:13.670Z,11.93
2022-11-04T23:39:50.479Z,11.70
2022-11-04T23:42:22.767Z,16.88
2022-11-04T23:45:10.441Z,14.52
2022-11-04T23:47:58.251Z,13.73
2022-11-04T23:50:45.116Z,10.27
2022-11-04T23:53:32.558Z,12.50
2022-11-04T23:56:18.014Z,10.40
2022-11-04T23:59:02.832Z,12.18
